sensor_id;sensor_type;location;lat;lon;timestamp;P1;durP1;ratioP1;P2;durP2;ratioP2
69854;SDS011;57146;48.140;16.304;2022-07-23T00:01:16;8.20;;;6.22;;
69854;SDS011;57146;48.140;16.304;2022-07-23T00:03:53;8.73;;;5.87;;
69854;SDS011;57146;48.140;16.304;2022-07-23T00:06:20;9.00;;;6.35;;
69854;SDS011;57146;48.140;16.304;2022-07-23T00:08:47;9.27;;;6.07;;
69854;SDS011;57146;48.140;16.304;2022-07-23T00:11:14;9.40;;;6.18;;
69854;SDS011;57146;48.140;16.304;2022-07-23T00:13:42;9.80;;;6.57;;
69854;SDS011;57146;48.140;16.304;2022-07-23T00:16:09;19.97;;;6.13;;
69854;SDS011;57146;48.140;16.304;2022-07-23T00:18:37;11.73;;;6.78;;
69854;SDS011;57146;48.140;16.304;2022-07-23T00:21:04;7.72;;;6.10;;
69854;SDS011;57146;48.140;16.304;2022-07-23T00:23:31;9.00;;;6.43;;
69854;SDS011;57146;48.140;16.304;2022-07-23T00:25:58;8.45;;;5.90;;
69854;SDS011;57146;48.140;16.304;2022-07-23T00:28:25;9.57;;;6.50;;
69854;SDS011;57146;48.140;16.304;2022-07-23T00:30:51;12.63;;;6.07;;
69854;SDS011;57146;48.140;16.304;2022-07-23T00:33:19;9.82;;;5.80;;
69854;SDS011;57146;48.140;16.304;2022-07-23T00:35:46;8.18;;;5.78;;
69854;SDS011;57146;48.140;16.304;2022-07-23T00:38:13;9.07;;;5.68;;
69854;SDS011;57146;48.140;16.304;2022-07-23T00:40:40;8.53;;;5.93;;
69854;SDS011;57146;48.140;16.304;2022-07-23T00:43:07;8.38;;;5.43;;
69854;SDS011;57146;48.140;16.304;2022-07-23T00:45:34;9.60;;;5.70;;
69854;SDS011;57146;48.140;16.304;2022-07-23T00:48:02;9.13;;;5.75;;
69854;SDS011;57146;48.140;16.304;2022-07-23T00:50:29;7.75;;;5.55;;
69854;SDS011;57146;48.140;16.304;2022-07-23T00:52:56;7.10;;;5.57;;
69854;SDS011;57146;48.140;16.304;2022-07-23T00:55:23;8.07;;;5.78;;
69854;SDS011;57146;48.140;16.304;2022-07-23T00:57:50;7.47;;;5.20;;
69854;SDS011;57146;48.140;16.304;2022-07-23T01:00:19;8.18;;;5.72;;
69854;SDS011;57146;48.140;16.304;2022-07-23T01:02:47;7.85;;;5.60;;
69854;SDS011;57146;48.140;16.304;2022-07-23T01:05:14;7.20;;;5.30;;
69854;SDS011;57146;48.140;16.304;2022-07-23T01:07:42;8.18;;;5.63;;
69854;SDS011;57146;48.140;16.304;2022-07-23T01:10:08;8.07;;;5.68;;
69854;SDS011;57146;48.140;16.304;2022-07-23T01:12:38;7.90;;;5.70;;
69854;SDS011;57146;48.140;16.304;2022-07-23T01:15:05;9.80;;;6.10;;
69854;SDS011;57146;48.140;16.304;2022-07-23T01:17:32;8.90;;;5.80;;
69854;SDS011;57146;48.140;16.304;2022-07-23T01:19:59;11.27;;;6.15;;
69854;SDS011;57146;48.140;16.304;2022-07-23T01:22:29;7.53;;;5.50;;
69854;SDS011;57146;48.140;16.304;2022-07-23T01:24:56;8.88;;;6.03;;
69854;SDS011;57146;48.140;16.304;2022-07-23T01:27:25;10.13;;;5.85;;
69854;SDS011;57146;48.140;16.304;2022-07-23T01:30:00;9.10;;;5.60;;
69854;SDS011;57146;48.140;16.304;2022-07-23T01:32:27;13.05;;;5.70;;
69854;SDS011;57146;48.140;16.304;2022-07-23T01:34:54;9.68;;;6.00;;
69854;SDS011;57146;48.140;16.304;2022-07-23T01:37:21;7.85;;;5.95;;
69854;SDS011;57146;48.140;16.304;2022-07-23T01:39:48;9.35;;;6.10;;
69854;SDS011;57146;48.140;16.304;2022-07-23T01:42:15;9.77;;;6.17;;
69854;SDS011;57146;48.140;16.304;2022-07-23T01:44:45;9.40;;;6.13;;
69854;SDS011;57146;48.140;16.304;2022-07-23T01:47:19;9.98;;;6.30;;
69854;SDS011;57146;48.140;16.304;2022-07-23T01:49:50;9.57;;;6.38;;
69854;SDS011;57146;48.140;16.304;2022-07-23T01:52:19;9.68;;;6.88;;
69854;SDS011;57146;48.140;16.304;2022-07-23T01:54:49;10.70;;;6.87;;
69854;SDS011;57146;48.140;16.304;2022-07-23T01:57:16;9.88;;;6.65;;
69854;SDS011;57146;48.140;16.304;2022-07-23T01:59:44;11.40;;;6.53;;
69854;SDS011;57146;48.140;16.304;2022-07-23T02:02:11;9.48;;;6.70;;
69854;SDS011;57146;48.140;16.304;2022-07-23T02:04:38;10.90;;;7.00;;
69854;SDS011;57146;48.140;16.304;2022-07-23T02:07:05;9.97;;;7.40;;
69854;SDS011;57146;48.140;16.304;2022-07-23T02:09:32;8.57;;;6.90;;
69854;SDS011;57146;48.140;16.304;2022-07-23T02:12:00;8.93;;;6.70;;
69854;SDS011;57146;48.140;16.304;2022-07-23T02:14:27;9.43;;;6.68;;
69854;SDS011;57146;48.140;16.304;2022-07-23T02:16:54;11.15;;;7.43;;
69854;SDS011;57146;48.140;16.304;2022-07-23T02:19:21;9.17;;;6.90;;
69854;SDS011;57146;48.140;16.304;2022-07-23T02:21:48;9.07;;;7.30;;
69854;SDS011;57146;48.140;16.304;2022-07-23T02:24:18;10.10;;;7.00;;
69854;SDS011;57146;48.140;16.304;2022-07-23T02:26:45;9.20;;;7.28;;
69854;SDS011;57146;48.140;16.304;2022-07-23T02:29:14;10.85;;;7.07;;
69854;SDS011;57146;48.140;16.304;2022-07-23T02:31:40;11.60;;;7.60;;
69854;SDS011;57146;48.140;16.304;2022-07-23T02:34:07;10.02;;;7.53;;
69854;SDS011;57146;48.140;16.304;2022-07-23T02:36:34;10.30;;;7.82;;
69854;SDS011;57146;48.140;16.304;2022-07-23T02:39:03;9.82;;;7.57;;
69854;SDS011;57146;48.140;16.304;2022-07-23T02:41:32;10.73;;;7.60;;
69854;SDS011;57146;48.140;16.304;2022-07-23T02:43:59;9.23;;;6.87;;
69854;SDS011;57146;48.140;16.304;2022-07-23T02:46:26;9.85;;;7.38;;
69854;SDS011;57146;48.140;16.304;2022-07-23T02:48:55;9.70;;;6.85;;
69854;SDS011;57146;48.140;16.304;2022-07-23T02:51:22;10.98;;;7.50;;
69854;SDS011;57146;48.140;16.304;2022-07-23T02:53:54;10.95;;;7.15;;
69854;SDS011;57146;48.140;16.304;2022-07-23T02:56:21;12.33;;;7.17;;
69854;SDS011;57146;48.140;16.304;2022-07-23T02:58:48;8.90;;;7.47;;
69854;SDS011;57146;48.140;16.304;2022-07-23T03:01:15;9.95;;;7.43;;
69854;SDS011;57146;48.140;16.304;2022-07-23T03:03:46;8.80;;;7.22;;
69854;SDS011;57146;48.140;16.304;2022-07-23T03:06:13;9.38;;;7.28;;
69854;SDS011;57146;48.140;16.304;2022-07-23T03:08:40;9.50;;;7.70;;
69854;SDS011;57146;48.140;16.304;2022-07-23T03:11:07;10.77;;;7.55;;
69854;SDS011;57146;48.140;16.304;2022-07-23T03:13:34;10.55;;;7.55;;
69854;SDS011;57146;48.140;16.304;2022-07-23T03:16:01;10.30;;;7.07;;
69854;SDS011;57146;48.140;16.304;2022-07-23T03:18:29;8.82;;;7.22;;
69854;SDS011;57146;48.140;16.304;2022-07-23T03:20:56;10.27;;;7.40;;
69854;SDS011;57146;48.140;16.304;2022-07-23T03:23:23;8.98;;;7.30;;
69854;SDS011;57146;48.140;16.304;2022-07-23T03:25:51;10.02;;;7.30;;
69854;SDS011;57146;48.140;16.304;2022-07-23T03:28:21;10.45;;;7.28;;
69854;SDS011;57146;48.140;16.304;2022-07-23T03:30:48;10.55;;;7.90;;
69854;SDS011;57146;48.140;16.304;2022-07-23T03:33:15;8.30;;;6.77;;
69854;SDS011;57146;48.140;16.304;2022-07-23T03:35:43;10.63;;;7.72;;
69854;SDS011;57146;48.140;16.304;2022-07-23T03:38:25;9.30;;;7.07;;
69854;SDS011;57146;48.140;16.304;2022-07-23T03:40:53;9.07;;;7.55;;
69854;SDS011;57146;48.140;16.304;2022-07-23T03:43:20;10.50;;;7.30;;
69854;SDS011;57146;48.140;16.304;2022-07-23T03:45:47;10.17;;;7.63;;
69854;SDS011;57146;48.140;16.304;2022-07-23T03:48:14;9.52;;;6.93;;
69854;SDS011;57146;48.140;16.304;2022-07-23T03:50:43;11.77;;;8.10;;
69854;SDS011;57146;48.140;16.304;2022-07-23T03:53:10;10.10;;;6.97;;
69854;SDS011;57146;48.140;16.304;2022-07-23T03:55:37;10.93;;;7.65;;
69854;SDS011;57146;48.140;16.304;2022-07-23T03:58:04;10.27;;;7.53;;
69854;SDS011;57146;48.140;16.304;2022-07-23T04:00:31;10.15;;;7.88;;
69854;SDS011;57146;48.140;16.304;2022-07-23T04:02:58;12.18;;;7.10;;
69854;SDS011;57146;48.140;16.304;2022-07-23T04:05:26;9.73;;;7.40;;
69854;SDS011;57146;48.140;16.304;2022-07-23T04:08:03;9.77;;;7.50;;
69854;SDS011;57146;48.140;16.304;2022-07-23T04:10:31;9.80;;;7.33;;
69854;SDS011;57146;48.140;16.304;2022-07-23T04:12:58;10.05;;;7.50;;
69854;SDS011;57146;48.140;16.304;2022-07-23T04:15:24;11.82;;;7.53;;
69854;SDS011;57146;48.140;16.304;2022-07-23T04:17:52;9.57;;;7.68;;
69854;SDS011;57146;48.140;16.304;2022-07-23T04:20:20;10.70;;;7.53;;
69854;SDS011;57146;48.140;16.304;2022-07-23T04:22:54;8.93;;;6.90;;
69854;SDS011;57146;48.140;16.304;2022-07-23T04:25:21;11.32;;;7.80;;
69854;SDS011;57146;48.140;16.304;2022-07-23T04:27:48;10.00;;;8.07;;
69854;SDS011;57146;48.140;16.304;2022-07-23T04:30:16;8.85;;;7.20;;
69854;SDS011;57146;48.140;16.304;2022-07-23T04:32:43;11.15;;;7.93;;
69854;SDS011;57146;48.140;16.304;2022-07-23T04:35:19;12.07;;;7.50;;
69854;SDS011;57146;48.140;16.304;2022-07-23T04:37:47;10.18;;;7.30;;
69854;SDS011;57146;48.140;16.304;2022-07-23T04:40:16;11.05;;;8.07;;
69854;SDS011;57146;48.140;16.304;2022-07-23T04:42:43;10.93;;;7.43;;
69854;SDS011;57146;48.140;16.304;2022-07-23T04:45:10;10.10;;;7.47;;
69854;SDS011;57146;48.140;16.304;2022-07-23T04:47:40;11.10;;;7.83;;
69854;SDS011;57146;48.140;16.304;2022-07-23T04:50:08;11.48;;;8.07;;
69854;SDS011;57146;48.140;16.304;2022-07-23T04:52:39;8.77;;;6.97;;
69854;SDS011;57146;48.140;16.304;2022-07-23T04:55:06;10.32;;;7.60;;
69854;SDS011;57146;48.140;16.304;2022-07-23T04:57:33;9.75;;;7.50;;
69854;SDS011;57146;48.140;16.304;2022-07-23T05:00:01;10.57;;;7.10;;
69854;SDS011;57146;48.140;16.304;2022-07-23T05:02:28;9.43;;;6.97;;
69854;SDS011;57146;48.140;16.304;2022-07-23T05:04:55;9.50;;;6.82;;
69854;SDS011;57146;48.140;16.304;2022-07-23T05:07:22;9.63;;;6.38;;
69854;SDS011;57146;48.140;16.304;2022-07-23T05:09:50;8.52;;;6.60;;
69854;SDS011;57146;48.140;16.304;2022-07-23T05:12:17;10.30;;;6.67;;
69854;SDS011;57146;48.140;16.304;2022-07-23T05:14:44;8.30;;;6.13;;
69854;SDS011;57146;48.140;16.304;2022-07-23T05:17:11;9.68;;;6.10;;
69854;SDS011;57146;48.140;16.304;2022-07-23T05:19:38;7.47;;;5.70;;
69854;SDS011;57146;48.140;16.304;2022-07-23T05:22:05;8.25;;;5.60;;
69854;SDS011;57146;48.140;16.304;2022-07-23T05:24:32;9.47;;;5.47;;
69854;SDS011;57146;48.140;16.304;2022-07-23T05:27:00;9.48;;;5.60;;
69854;SDS011;57146;48.140;16.304;2022-07-23T05:29:27;7.53;;;5.22;;
69854;SDS011;57146;48.140;16.304;2022-07-23T05:31:54;7.55;;;5.43;;
69854;SDS011;57146;48.140;16.304;2022-07-23T05:34:21;9.35;;;5.10;;
69854;SDS011;57146;48.140;16.304;2022-07-23T05:36:49;7.37;;;5.07;;
69854;SDS011;57146;48.140;16.304;2022-07-23T05:39:16;7.63;;;4.90;;
69854;SDS011;57146;48.140;16.304;2022-07-23T05:41:43;6.97;;;4.78;;
69854;SDS011;57146;48.140;16.304;2022-07-23T05:44:10;7.30;;;5.00;;
69854;SDS011;57146;48.140;16.304;2022-07-23T05:46:39;7.85;;;4.95;;
69854;SDS011;57146;48.140;16.304;2022-07-23T05:49:09;7.30;;;4.50;;
69854;SDS011;57146;48.140;16.304;2022-07-23T05:52:05;7.57;;;4.72;;
69854;SDS011;57146;48.140;16.304;2022-07-23T05:54:50;6.63;;;4.78;;
69854;SDS011;57146;48.140;16.304;2022-07-23T05:57:17;11.23;;;5.07;;
69854;SDS011;57146;48.140;16.304;2022-07-23T05:59:50;6.75;;;4.75;;
69854;SDS011;57146;48.140;16.304;2022-07-23T06:02:17;6.43;;;4.90;;
69854;SDS011;57146;48.140;16.304;2022-07-23T06:04:44;9.27;;;5.18;;
69854;SDS011;57146;48.140;16.304;2022-07-23T06:07:20;8.68;;;4.97;;
69854;SDS011;57146;48.140;16.304;2022-07-23T06:09:48;8.00;;;5.18;;
69854;SDS011;57146;48.140;16.304;2022-07-23T06:12:16;6.85;;;4.88;;
69854;SDS011;57146;48.140;16.304;2022-07-23T06:14:44;8.03;;;5.37;;
69854;SDS011;57146;48.140;16.304;2022-07-23T06:17:11;9.30;;;5.30;;
69854;SDS011;57146;48.140;16.304;2022-07-23T06:19:37;6.90;;;5.05;;
69854;SDS011;57146;48.140;16.304;2022-07-23T06:22:04;7.30;;;5.20;;
69854;SDS011;57146;48.140;16.304;2022-07-23T06:24:31;8.45;;;5.80;;
69854;SDS011;57146;48.140;16.304;2022-07-23T06:26:58;8.33;;;5.43;;
69854;SDS011;57146;48.140;16.304;2022-07-23T06:29:25;7.60;;;5.30;;
69854;SDS011;57146;48.140;16.304;2022-07-23T06:31:52;7.40;;;5.10;;
69854;SDS011;57146;48.140;16.304;2022-07-23T06:34:18;10.07;;;5.60;;
69854;SDS011;57146;48.140;16.304;2022-07-23T06:36:45;7.32;;;5.35;;
69854;SDS011;57146;48.140;16.304;2022-07-23T06:39:12;12.77;;;5.37;;
69854;SDS011;57146;48.140;16.304;2022-07-23T06:41:45;8.30;;;5.10;;
69854;SDS011;57146;48.140;16.304;2022-07-23T06:44:17;15.00;;;5.45;;
69854;SDS011;57146;48.140;16.304;2022-07-23T06:46:46;9.13;;;4.95;;
69854;SDS011;57146;48.140;16.304;2022-07-23T06:49:14;7.20;;;4.65;;
69854;SDS011;57146;48.140;16.304;2022-07-23T06:51:41;8.23;;;4.60;;
69854;SDS011;57146;48.140;16.304;2022-07-23T06:54:08;8.75;;;4.97;;
69854;SDS011;57146;48.140;16.304;2022-07-23T06:56:35;5.78;;;4.10;;
69854;SDS011;57146;48.140;16.304;2022-07-23T06:59:02;7.78;;;4.43;;
69854;SDS011;57146;48.140;16.304;2022-07-23T07:01:29;15.02;;;4.30;;
69854;SDS011;57146;48.140;16.304;2022-07-23T07:03:56;7.10;;;3.80;;
69854;SDS011;57146;48.140;16.304;2022-07-23T07:06:23;13.40;;;4.00;;
69854;SDS011;57146;48.140;16.304;2022-07-23T07:08:50;19.95;;;4.20;;
69854;SDS011;57146;48.140;16.304;2022-07-23T07:11:17;10.93;;;3.53;;
69854;SDS011;57146;48.140;16.304;2022-07-23T07:13:44;8.18;;;3.80;;
69854;SDS011;57146;48.140;16.304;2022-07-23T07:16:11;32.20;;;4.33;;
69854;SDS011;57146;48.140;16.304;2022-07-23T07:18:38;22.35;;;4.28;;
69854;SDS011;57146;48.140;16.304;2022-07-23T07:21:05;7.47;;;3.08;;
69854;SDS011;57146;48.140;16.304;2022-07-23T07:23:32;12.45;;;3.38;;
69854;SDS011;57146;48.140;16.304;2022-07-23T07:25:58;5.15;;;3.38;;
69854;SDS011;57146;48.140;16.304;2022-07-23T07:28:25;5.90;;;3.60;;
69854;SDS011;57146;48.140;16.304;2022-07-23T07:30:52;8.65;;;3.38;;
69854;SDS011;57146;48.140;16.304;2022-07-23T07:33:20;7.50;;;3.25;;
69854;SDS011;57146;48.140;16.304;2022-07-23T07:35:47;8.02;;;3.28;;
69854;SDS011;57146;48.140;16.304;2022-07-23T07:38:14;5.85;;;3.40;;
69854;SDS011;57146;48.140;16.304;2022-07-23T07:40:41;61.37;;;7.43;;
69854;SDS011;57146;48.140;16.304;2022-07-23T07:43:08;5.95;;;3.40;;
69854;SDS011;57146;48.140;16.304;2022-07-23T07:45:34;5.05;;;2.90;;
69854;SDS011;57146;48.140;16.304;2022-07-23T07:48:01;7.60;;;3.20;;
69854;SDS011;57146;48.140;16.304;2022-07-23T07:50:28;5.68;;;3.45;;
69854;SDS011;57146;48.140;16.304;2022-07-23T07:52:56;7.90;;;3.23;;
69854;SDS011;57146;48.140;16.304;2022-07-23T07:55:23;5.03;;;3.08;;
69854;SDS011;57146;48.140;16.304;2022-07-23T07:57:50;7.68;;;3.10;;
69854;SDS011;57146;48.140;16.304;2022-07-23T08:00:17;5.82;;;3.30;;
69854;SDS011;57146;48.140;16.304;2022-07-23T08:02:46;4.10;;;3.00;;
69854;SDS011;57146;48.140;16.304;2022-07-23T08:05:23;5.77;;;2.97;;
69854;SDS011;57146;48.140;16.304;2022-07-23T08:07:54;5.95;;;3.55;;
69854;SDS011;57146;48.140;16.304;2022-07-23T08:10:22;5.00;;;3.42;;
69854;SDS011;57146;48.140;16.304;2022-07-23T08:12:53;5.15;;;3.00;;
69854;SDS011;57146;48.140;16.304;2022-07-23T08:15:22;10.82;;;3.67;;
69854;SDS011;57146;48.140;16.304;2022-07-23T08:17:50;4.70;;;3.17;;
69854;SDS011;57146;48.140;16.304;2022-07-23T08:20:17;4.88;;;3.28;;
69854;SDS011;57146;48.140;16.304;2022-07-23T08:25:26;4.80;;;3.60;;
69854;SDS011;57146;48.140;16.304;2022-07-23T08:27:54;8.07;;;4.00;;
69854;SDS011;57146;48.140;16.304;2022-07-23T08:30:22;4.93;;;3.57;;
69854;SDS011;57146;48.140;16.304;2022-07-23T08:32:50;7.18;;;3.40;;
69854;SDS011;57146;48.140;16.304;2022-07-23T08:38:03;6.22;;;4.30;;
69854;SDS011;57146;48.140;16.304;2022-07-23T08:40:33;6.25;;;3.90;;
69854;SDS011;57146;48.140;16.304;2022-07-23T08:43:09;5.23;;;4.23;;
69854;SDS011;57146;48.140;16.304;2022-07-23T08:45:45;6.47;;;3.80;;
69854;SDS011;57146;48.140;16.304;2022-07-23T08:48:14;5.88;;;4.10;;
69854;SDS011;57146;48.140;16.304;2022-07-23T08:50:45;5.25;;;4.15;;
69854;SDS011;57146;48.140;16.304;2022-07-23T08:53:14;7.07;;;4.43;;
69854;SDS011;57146;48.140;16.304;2022-07-23T08:55:45;6.33;;;4.17;;
69854;SDS011;57146;48.140;16.304;2022-07-23T08:58:14;5.55;;;3.92;;
69854;SDS011;57146;48.140;16.304;2022-07-23T09:00:41;8.80;;;3.90;;
69854;SDS011;57146;48.140;16.304;2022-07-23T09:03:19;7.35;;;4.50;;
69854;SDS011;57146;48.140;16.304;2022-07-23T09:05:50;6.10;;;4.65;;
69854;SDS011;57146;48.140;16.304;2022-07-23T09:08:19;6.70;;;4.20;;
69854;SDS011;57146;48.140;16.304;2022-07-23T09:10:52;5.88;;;4.10;;
69854;SDS011;57146;48.140;16.304;2022-07-23T09:21:13;6.97;;;4.80;;
69854;SDS011;57146;48.140;16.304;2022-07-23T09:23:44;6.03;;;4.82;;
69854;SDS011;57146;48.140;16.304;2022-07-23T09:31:46;5.78;;;4.18;;
69854;SDS011;57146;48.140;16.304;2022-07-23T09:34:27;7.47;;;4.43;;
69854;SDS011;57146;48.140;16.304;2022-07-23T09:36:58;6.20;;;4.60;;
69854;SDS011;57146;48.140;16.304;2022-07-23T09:39:35;6.35;;;4.63;;
69854;SDS011;57146;48.140;16.304;2022-07-23T09:44:59;5.03;;;4.03;;
69854;SDS011;57146;48.140;16.304;2022-07-23T09:47:27;6.43;;;4.77;;
69854;SDS011;57146;48.140;16.304;2022-07-23T09:52:29;6.63;;;5.40;;
69854;SDS011;57146;48.140;16.304;2022-07-23T09:55:04;7.50;;;5.55;;
69854;SDS011;57146;48.140;16.304;2022-07-23T09:57:32;6.53;;;5.63;;
69854;SDS011;57146;48.140;16.304;2022-07-23T10:00:06;6.13;;;5.07;;
69854;SDS011;57146;48.140;16.304;2022-07-23T10:02:34;7.32;;;4.95;;
69854;SDS011;57146;48.140;16.304;2022-07-23T10:05:21;7.22;;;5.18;;
69854;SDS011;57146;48.140;16.304;2022-07-23T10:07:57;6.53;;;4.78;;
69854;SDS011;57146;48.140;16.304;2022-07-23T10:10:47;7.13;;;5.32;;
69854;SDS011;57146;48.140;16.304;2022-07-23T10:13:21;7.23;;;5.33;;
69854;SDS011;57146;48.140;16.304;2022-07-23T10:15:50;6.80;;;5.75;;
69854;SDS011;57146;48.140;16.304;2022-07-23T10:18:17;7.47;;;5.40;;
69854;SDS011;57146;48.140;16.304;2022-07-23T10:20:44;6.20;;;5.50;;
69854;SDS011;57146;48.140;16.304;2022-07-23T10:23:21;5.85;;;5.18;;
69854;SDS011;57146;48.140;16.304;2022-07-23T10:26:03;7.13;;;5.80;;
69854;SDS011;57146;48.140;16.304;2022-07-23T10:35:09;9.70;;;6.28;;
69854;SDS011;57146;48.140;16.304;2022-07-23T10:38:03;7.55;;;5.32;;
69854;SDS011;57146;48.140;16.304;2022-07-23T10:40:52;6.93;;;6.13;;
69854;SDS011;57146;48.140;16.304;2022-07-23T10:43:20;7.50;;;6.15;;
69854;SDS011;57146;48.140;16.304;2022-07-23T10:45:47;7.25;;;6.00;;
69854;SDS011;57146;48.140;16.304;2022-07-23T10:48:16;9.68;;;6.35;;
69854;SDS011;57146;48.140;16.304;2022-07-23T10:56:48;10.77;;;6.00;;
69854;SDS011;57146;48.140;16.304;2022-07-23T10:59:22;7.28;;;5.65;;
69854;SDS011;57146;48.140;16.304;2022-07-23T11:01:50;7.18;;;5.60;;
69854;SDS011;57146;48.140;16.304;2022-07-23T11:04:18;9.23;;;6.00;;
69854;SDS011;57146;48.140;16.304;2022-07-23T11:09:38;6.68;;;5.22;;
69854;SDS011;57146;48.140;16.304;2022-07-23T11:17:34;6.45;;;5.18;;
69854;SDS011;57146;48.140;16.304;2022-07-23T11:22:38;8.25;;;5.95;;
69854;SDS011;57146;48.140;16.304;2022-07-23T11:25:06;6.60;;;5.53;;
69854;SDS011;57146;48.140;16.304;2022-07-23T11:27:40;6.78;;;5.80;;
69854;SDS011;57146;48.140;16.304;2022-07-23T11:30:10;6.88;;;6.13;;
69854;SDS011;57146;48.140;16.304;2022-07-23T11:35:43;7.63;;;6.28;;
69854;SDS011;57146;48.140;16.304;2022-07-23T11:38:14;6.97;;;6.18;;
69854;SDS011;57146;48.140;16.304;2022-07-23T11:40:50;9.55;;;6.60;;
69854;SDS011;57146;48.140;16.304;2022-07-23T11:43:19;8.40;;;7.55;;
69854;SDS011;57146;48.140;16.304;2022-07-23T11:45:50;8.07;;;7.27;;
69854;SDS011;57146;48.140;16.304;2022-07-23T11:48:22;7.88;;;7.07;;
69854;SDS011;57146;48.140;16.304;2022-07-23T11:50:53;8.50;;;7.28;;
69854;SDS011;57146;48.140;16.304;2022-07-23T11:53:23;9.13;;;6.90;;
69854;SDS011;57146;48.140;16.304;2022-07-23T11:56:04;7.65;;;6.85;;
69854;SDS011;57146;48.140;16.304;2022-07-23T11:58:32;7.73;;;6.83;;
69854;SDS011;57146;48.140;16.304;2022-07-23T12:00:59;7.68;;;6.88;;
69854;SDS011;57146;48.140;16.304;2022-07-23T12:03:27;8.52;;;6.80;;
69854;SDS011;57146;48.140;16.304;2022-07-23T12:05:57;9.18;;;6.80;;
69854;SDS011;57146;48.140;16.304;2022-07-23T12:08:26;8.68;;;6.63;;
69854;SDS011;57146;48.140;16.304;2022-07-23T12:10:53;7.90;;;6.20;;
69854;SDS011;57146;48.140;16.304;2022-07-23T12:13:21;8.88;;;6.78;;
69854;SDS011;57146;48.140;16.304;2022-07-23T12:15:50;8.27;;;6.28;;
69854;SDS011;57146;48.140;16.304;2022-07-23T12:18:19;8.32;;;6.80;;
69854;SDS011;57146;48.140;16.304;2022-07-23T12:20:52;9.40;;;6.10;;
69854;SDS011;57146;48.140;16.304;2022-07-23T12:23:24;7.17;;;5.53;;
69854;SDS011;57146;48.140;16.304;2022-07-23T12:25:52;6.45;;;5.55;;
69854;SDS011;57146;48.140;16.304;2022-07-23T12:28:30;7.00;;;5.20;;
69854;SDS011;57146;48.140;16.304;2022-07-23T12:30:59;6.63;;;5.28;;
69854;SDS011;57146;48.140;16.304;2022-07-23T12:33:34;7.07;;;5.80;;
69854;SDS011;57146;48.140;16.304;2022-07-23T12:36:04;6.57;;;4.80;;
69854;SDS011;57146;48.140;16.304;2022-07-23T12:38:39;7.50;;;4.80;;
69854;SDS011;57146;48.140;16.304;2022-07-23T12:41:08;8.80;;;4.63;;
69854;SDS011;57146;48.140;16.304;2022-07-23T12:43:38;6.10;;;4.20;;
69854;SDS011;57146;48.140;16.304;2022-07-23T12:48:39;5.57;;;4.33;;
69854;SDS011;57146;48.140;16.304;2022-07-23T12:51:19;6.18;;;3.97;;
69854;SDS011;57146;48.140;16.304;2022-07-23T12:53:51;4.75;;;3.42;;
69854;SDS011;57146;48.140;16.304;2022-07-23T12:58:48;4.50;;;2.88;;
69854;SDS011;57146;48.140;16.304;2022-07-23T13:01:40;4.90;;;2.77;;
69854;SDS011;57146;48.140;16.304;2022-07-23T13:04:13;4.07;;;2.53;;
69854;SDS011;57146;48.140;16.304;2022-07-23T13:07:02;3.85;;;2.80;;
69854;SDS011;57146;48.140;16.304;2022-07-23T13:09:31;5.05;;;2.67;;
69854;SDS011;57146;48.140;16.304;2022-07-23T13:12:07;4.47;;;2.75;;
69854;SDS011;57146;48.140;16.304;2022-07-23T13:14:34;4.23;;;2.87;;
69854;SDS011;57146;48.140;16.304;2022-07-23T13:17:01;4.20;;;2.78;;
69854;SDS011;57146;48.140;16.304;2022-07-23T13:19:28;8.40;;;2.78;;
69854;SDS011;57146;48.140;16.304;2022-07-23T13:21:54;4.05;;;2.58;;
69854;SDS011;57146;48.140;16.304;2022-07-23T13:24:21;4.38;;;2.80;;
69854;SDS011;57146;48.140;16.304;2022-07-23T13:26:48;3.70;;;2.70;;
69854;SDS011;57146;48.140;16.304;2022-07-23T13:29:15;3.50;;;2.45;;
69854;SDS011;57146;48.140;16.304;2022-07-23T13:31:45;5.03;;;2.75;;
69854;SDS011;57146;48.140;16.304;2022-07-23T13:34:13;6.55;;;2.72;;
69854;SDS011;57146;48.140;16.304;2022-07-23T13:36:40;6.00;;;2.67;;
69854;SDS011;57146;48.140;16.304;2022-07-23T13:39:06;4.23;;;2.30;;
69854;SDS011;57146;48.140;16.304;2022-07-23T13:41:35;3.42;;;2.47;;
69854;SDS011;57146;48.140;16.304;2022-07-23T13:44:04;3.20;;;2.33;;
69854;SDS011;57146;48.140;16.304;2022-07-23T13:46:32;4.18;;;2.17;;
69854;SDS011;57146;48.140;16.304;2022-07-23T13:49:00;4.57;;;2.67;;
69854;SDS011;57146;48.140;16.304;2022-07-23T13:51:28;3.63;;;2.37;;
69854;SDS011;57146;48.140;16.304;2022-07-23T13:53:55;4.10;;;2.60;;
69854;SDS011;57146;48.140;16.304;2022-07-23T13:56:22;3.50;;;2.40;;
69854;SDS011;57146;48.140;16.304;2022-07-23T13:58:49;4.28;;;2.60;;
69854;SDS011;57146;48.140;16.304;2022-07-23T14:01:16;5.00;;;2.88;;
69854;SDS011;57146;48.140;16.304;2022-07-23T14:03:43;3.60;;;2.60;;
69854;SDS011;57146;48.140;16.304;2022-07-23T14:06:11;5.18;;;2.40;;
69854;SDS011;57146;48.140;16.304;2022-07-23T14:08:45;4.28;;;2.90;;
69854;SDS011;57146;48.140;16.304;2022-07-23T14:11:13;5.30;;;2.70;;
69854;SDS011;57146;48.140;16.304;2022-07-23T14:13:40;3.60;;;2.92;;
69854;SDS011;57146;48.140;16.304;2022-07-23T14:16:07;3.10;;;2.23;;
69854;SDS011;57146;48.140;16.304;2022-07-23T14:18:35;4.18;;;2.65;;
69854;SDS011;57146;48.140;16.304;2022-07-23T14:21:02;3.53;;;2.45;;
69854;SDS011;57146;48.140;16.304;2022-07-23T14:23:29;4.93;;;2.92;;
69854;SDS011;57146;48.140;16.304;2022-07-23T14:25:56;4.97;;;3.20;;
69854;SDS011;57146;48.140;16.304;2022-07-23T14:28:23;4.60;;;2.90;;
69854;SDS011;57146;48.140;16.304;2022-07-23T14:30:51;4.03;;;2.90;;
69854;SDS011;57146;48.140;16.304;2022-07-23T14:33:18;3.83;;;2.90;;
69854;SDS011;57146;48.140;16.304;2022-07-23T14:35:45;4.75;;;3.28;;
69854;SDS011;57146;48.140;16.304;2022-07-23T14:38:12;4.72;;;3.47;;
69854;SDS011;57146;48.140;16.304;2022-07-23T14:40:39;5.10;;;3.47;;
69854;SDS011;57146;48.140;16.304;2022-07-23T14:43:07;4.60;;;3.30;;
69854;SDS011;57146;48.140;16.304;2022-07-23T14:45:37;8.40;;;4.00;;
69854;SDS011;57146;48.140;16.304;2022-07-23T14:48:05;4.97;;;4.03;;
69854;SDS011;57146;48.140;16.304;2022-07-23T14:50:34;5.55;;;3.38;;
69854;SDS011;57146;48.140;16.304;2022-07-23T14:53:01;5.13;;;3.60;;
69854;SDS011;57146;48.140;16.304;2022-07-23T14:55:30;4.82;;;3.90;;
69854;SDS011;57146;48.140;16.304;2022-07-23T14:57:57;5.40;;;3.70;;
69854;SDS011;57146;48.140;16.304;2022-07-23T15:00:26;5.75;;;3.88;;
69854;SDS011;57146;48.140;16.304;2022-07-23T15:02:53;5.28;;;4.00;;
69854;SDS011;57146;48.140;16.304;2022-07-23T15:05:21;6.70;;;3.83;;
69854;SDS011;57146;48.140;16.304;2022-07-23T15:07:48;5.00;;;3.70;;
69854;SDS011;57146;48.140;16.304;2022-07-23T15:10:15;5.47;;;3.90;;
69854;SDS011;57146;48.140;16.304;2022-07-23T15:12:47;5.72;;;3.95;;
69854;SDS011;57146;48.140;16.304;2022-07-23T15:15:15;8.95;;;4.38;;
69854;SDS011;57146;48.140;16.304;2022-07-23T15:17:43;4.83;;;4.27;;
69854;SDS011;57146;48.140;16.304;2022-07-23T15:20:10;4.85;;;3.88;;
69854;SDS011;57146;48.140;16.304;2022-07-23T15:22:40;5.63;;;3.85;;
69854;SDS011;57146;48.140;16.304;2022-07-23T15:25:07;6.32;;;4.03;;
69854;SDS011;57146;48.140;16.304;2022-07-23T15:27:37;5.57;;;4.15;;
69854;SDS011;57146;48.140;16.304;2022-07-23T15:30:05;5.77;;;4.00;;
69854;SDS011;57146;48.140;16.304;2022-07-23T15:32:33;4.80;;;3.97;;
69854;SDS011;57146;48.140;16.304;2022-07-23T15:35:00;4.65;;;3.38;;
69854;SDS011;57146;48.140;16.304;2022-07-23T15:37:28;4.53;;;3.83;;
69854;SDS011;57146;48.140;16.304;2022-07-23T15:39:56;6.15;;;3.92;;